KDWH/DWH METAR and TAF weather

Enter ICAO airport designator
Station Type Date Time Source
KDWH METAR 2021/09/28 15:53 UTC NOAA

KDWH 281553Z 28005KT 10SM FEW019 29/24 A2993 RMK AO2 LTG DSNT SE SLP134 T02890244


Station Type Date Time Source
KDWH Decoded METAR 2021/09/28 15:53 UTC NOAA

HOUSTON HOOKS MEMORIAL, TX, United States (KDWH) 30-04N 95-33W 46M
Sep 28, 2021 - 11:53 AM EDT / 2021.09.28 1553 UTC
Wind: from the W (280 degrees) at 6 MPH (5 KT):0
Visibility: 10 mile(s):0
Sky conditions: mostly clear
Weather: Lightning observed
Temperature: 84.0 F (28.9 C)
Dew Point: 75.9 F (24.4 C)
Relative Humidity: 76%
Pressure (altimeter): 29.93 in. Hg (1013 hPa)
ob: KDWH 281553Z 28005KT 10SM FEW019 29/24 A2993 RMK AO2 LTG DSNT SE SLP134 T02890244
cycle: 16

Station Type Date Time Source
KDWH TAF 2017/02/07 15:09 UTC NOAA

TAF
AMD KDWH 071507Z 0715/0812 23010KT P6SM BKN015
TEMPO 0715/0719 SCT015
FM071900 25010KT P6SM SCT025
FM080100 22005KT P6SM SCT250
TEMPO 0807/0809 3SM BR BKN013
FM080900 VRB03KT 2SM BR OVC008

Example: see airport list